Time;durP1;ratioP1;P1;durP2;ratioP2;P2;SDS_P1;SDS_P2;PMS_P1;PMS_P2;Temp;Humidity;BMP_temperature;BMP_pressure;BME280_temperature;BME280_humidity;BME280_pressure;Samples;Min_cycle;Max_cycle;Signal;HPM_P1;HPM_P2
2022/03/02 00:00:49;;;;;;;18.55;8.35;;;;;;;-3.33;66.38;102061.17;1607955;87;25769;-79
2022/03/02 00:03:15;;;;;;;21.30;8.98;;;;;;;-3.34;66.46;102069.97;1611084;88;27452;-77
2022/03/02 00:05:42;;;;;;;16.80;8.55;;;;;;;-3.36;66.84;102067.84;1608905;88;25808;-77
2022/03/02 00:08:08;;;;;;;20.77;8.43;;;;;;;-3.34;67.09;102066.48;1581616;88;26467;-77
2022/03/02 00:10:34;;;;;;;16.67;7.90;;;;;;;-3.34;67.09;102066.48;1606628;88;25862;-78
2022/03/02 00:13:01;;;;;;;21.23;9.43;;;;;;;-3.43;66.77;102051.14;1583113;89;25835;-77
2022/03/02 00:15:27;;;;;;;18.70;8.23;;;;;;;-3.39;66.89;102062.74;1605156;88;28291;-77
2022/03/02 00:17:54;;;;;;;18.92;9.58;;;;;;;-3.39;66.89;102062.74;1580767;89;25963;-77
2022/03/02 00:20:20;;;;;;;19.87;9.05;;;;;;;-3.40;66.83;102058.88;1605829;88;25809;-78
2022/03/02 00:22:46;;;;;;;26.30;10.72;;;;;;;-3.43;66.86;102060.31;1607703;88;26537;-78
2022/03/02 00:25:13;;;;;;;22.75;9.60;;;;;;;-3.46;67.04;102058.66;1610022;88;25742;-78
2022/03/02 00:27:39;;;;;;;21.70;10.50;;;;;;;-3.48;66.97;102056.56;1583835;88;27375;-78
2022/03/02 00:30:10;;;;;;;24.67;9.70;;;;;;;-3.53;66.88;102058.50;1604167;88;25819;-77
2022/03/02 00:32:38;;;;;;;22.40;10.23;;;;;;;-3.61;67.09;102054.48;1604896;87;25777;-77
2022/03/02 00:35:06;;;;;;;25.62;10.45;;;;;;;-3.59;67.00;102061.38;1612082;87;26625;-78
2022/03/02 00:37:32;;;;;;;26.10;10.50;;;;;;;-3.60;66.80;102062.75;1610274;88;25802;-78
2022/03/02 00:39:59;;;;;;;23.45;10.85;;;;;;;-3.61;66.65;102059.27;1606504;88;27457;-78
2022/03/02 00:42:25;;;;;;;24.72;11.73;;;;;;;-3.61;66.69;102055.34;1610063;88;25925;-77
2022/03/02 00:44:51;;;;;;;22.73;10.20;;;;;;;-3.64;67.08;102051.56;1610452;88;25865;-77
2022/03/02 00:47:18;;;;;;;20.70;10.23;;;;;;;-3.64;67.08;102051.56;1611710;87;26458;-78
2022/03/02 00:49:45;;;;;;;19.98;9.83;;;;;;;-3.65;67.39;102052.45;1611703;88;26051;-78
2022/03/02 00:52:14;;;;;;;21.73;10.13;;;;;;;-3.74;67.53;102032.35;1613573;88;28252;-77
2022/03/02 00:54:40;;;;;;;21.60;10.15;;;;;;;-3.74;67.53;102032.35;1606754;88;26530;-77
2022/03/02 00:57:07;;;;;;;23.52;11.28;;;;;;;-3.68;67.96;102043.44;1609616;88;25740;-77
2022/03/02 00:59:33;;;;;;;22.70;11.18;;;;;;;-3.68;67.81;102039.51;1608956;88;26486;-78
2022/03/02 01:02:00;;;;;;;23.65;11.20;;;;;;;-3.68;67.81;102039.51;1609690;88;25814;-78
2022/03/02 01:04:26;;;;;;;21.00;9.85;;;;;;;-3.69;67.61;102039.55;1609432;88;27486;-78
2022/03/02 01:06:53;;;;;;;24.55;11.43;;;;;;;-3.73;67.51;102040.59;1609776;88;25290;-77
2022/03/02 01:09:19;;;;;;;26.45;10.88;;;;;;;-3.81;67.32;102021.72;1608544;88;26170;-77
2022/03/02 01:11:45;;;;;;;23.75;10.48;;;;;;;-3.81;67.32;102021.72;1607915;87;26631;-78
2022/03/02 01:14:11;;;;;;;23.05;9.88;;;;;;;-3.80;67.45;102023.41;1603901;87;25896;-77
2022/03/02 01:16:38;;;;;;;23.35;11.30;;;;;;;-3.83;67.66;102026.17;1612409;88;27526;-78
2022/03/02 01:19:05;;;;;;;20.00;10.82;;;;;;;-3.84;68.10;102020.08;1610667;88;25926;-78
2022/03/02 01:21:31;;;;;;;20.17;10.08;;;;;;;-3.84;68.28;102021.38;1613829;88;25722;-78
2022/03/02 01:23:59;;;;;;;29.40;12.75;;;;;;;-3.85;68.18;102025.38;1610926;88;26492;-78
2022/03/02 01:26:26;;;;;;;20.02;10.05;;;;;;;-3.89;68.17;102015.47;1607808;87;25827;-77
2022/03/02 01:28:56;;;;;;;23.30;11.03;;;;;;;-3.94;68.09;102019.60;1610979;88;27459;-78
2022/03/02 01:31:26;;;;;;;27.25;11.75;;;;;;;-3.99;68.14;102010.20;1603669;88;25824;-78
2022/03/02 01:33:53;;;;;;;21.37;11.63;;;;;;;-4.02;68.32;102005.11;1606691;88;25762;-77
2022/03/02 01:36:20;;;;;;;24.72;12.20;;;;;;;-4.00;69.00;102004.59;1603200;88;25835;-77
2022/03/02 01:38:47;;;;;;;26.25;13.32;;;;;;;-3.99;69.30;102001.05;1609990;88;26055;-78
2022/03/02 01:41:17;;;;;;;25.90;11.38;;;;;;;-4.00;69.34;102001.50;1584146;88;28351;-77
2022/03/02 01:43:48;;;;;;;19.62;10.65;;;;;;;-4.02;69.51;101997.26;1611089;88;25767;-77
2022/03/02 01:46:17;;;;;;;20.52;10.63;;;;;;;-4.03;69.57;102002.08;1606482;88;37626;-78
2022/03/02 01:48:44;;;;;;;21.80;11.28;;;;;;;-4.05;69.51;101995.61;1605194;88;26252;-77
2022/03/02 01:51:10;;;;;;;26.93;13.00;;;;;;;-4.07;69.45;102000.50;1607595;87;26018;-77
2022/03/02 01:53:37;;;;;;;23.25;12.55;;;;;;;-4.07;69.36;101994.82;1606378;88;27458;-77
2022/03/02 01:56:03;;;;;;;31.55;12.82;;;;;;;-4.07;69.89;101992.66;1605290;88;25858;-78
2022/03/02 01:58:30;;;;;;;29.10;12.88;;;;;;;-4.08;70.08;101990.94;1607449;88;25785;-78
2022/03/02 02:00:59;;;;;;;25.82;12.03;;;;;;;-4.10;70.04;101983.16;1609831;88;26556;-78
2022/03/02 02:03:25;;;;;;;28.35;12.73;;;;;;;-4.12;70.00;101986.28;1603051;88;26119;-78
2022/03/02 02:05:52;;;;;;;32.13;14.68;;;;;;;-4.13;70.12;101979.81;1606741;88;27607;-77
2022/03/02 02:08:19;;;;;;;28.15;13.72;;;;;;;-4.12;70.40;101978.89;1615128;88;26311;-77
2022/03/02 02:10:46;;;;;;;37.98;16.50;;;;;;;-4.09;70.52;101978.78;1611890;87;25880;-78
2022/03/02 02:13:12;;;;;;;31.82;16.20;;;;;;;-4.10;70.58;101969.21;1607094;88;26707;-78
2022/03/02 02:15:38;;;;;;;32.33;14.80;;;;;;;-4.09;70.52;101968.31;1609965;87;25838;-78
2022/03/02 02:18:05;;;;;;;29.55;15.15;;;;;;;-4.08;70.52;101970.86;1610056;88;27461;-77
2022/03/02 02:20:39;;;;;;;30.32;15.28;;;;;;;-4.08;70.56;101971.31;1610035;88;25759;-77
2022/03/02 02:23:07;;;;;;;33.40;14.80;;;;;;;-4.08;70.50;101962.15;1606232;88;26485;-77
2022/03/02 02:25:33;;;;;;;32.80;15.18;;;;;;;-4.12;70.37;101959.27;1611251;87;25927;-77
2022/03/02 02:28:00;;;;;;;26.85;13.38;;;;;;;-4.16;70.30;101957.23;1607341;88;25810;-77
2022/03/02 02:30:29;;;;;;;32.28;13.95;;;;;;;-4.16;70.37;101953.76;1612179;88;27524;-77
2022/03/02 02:32:55;;;;;;;26.87;14.60;;;;;;;-4.17;70.55;101946.84;1609981;88;25743;-77
2022/03/02 02:35:21;;;;;;;28.42;13.18;;;;;;;-4.20;70.44;101946.50;1610558;88;25804;-77
2022/03/02 02:37:48;;;;;;;27.98;14.18;;;;;;;-4.20;70.43;101950.42;1606551;88;25841;-78
2022/03/02 02:40:18;;;;;;;24.23;12.53;;;;;;;-4.22;70.39;101947.02;1610087;88;25775;-77
2022/03/02 02:42:48;;;;;;;27.30;12.25;;;;;;;-4.24;70.34;101948.84;1607556;88;27488;-78
2022/03/02 02:45:20;;;;;;;24.95;11.70;;;;;;;-4.30;70.15;101943.83;1607714;87;25887;-77
2022/03/02 02:47:55;;;;;;;30.00;13.55;;;;;;;-4.35;69.94;101939.70;1608295;87;25767;-77
2022/03/02 02:50:30;;;;;;;32.05;14.23;;;;;;;-4.40;69.83;101938.56;1606890;88;25779;-78
2022/03/02 02:52:59;;;;;;;32.60;15.53;;;;;;;-4.43;69.86;101941.32;1603566;88;25882;-77
2022/03/02 02:55:26;;;;;;;;;;;;;;;-4.46;69.83;101936.20;1610740;88;27622;-77
2022/03/02 02:57:54;;;;;;;35.00;15.65;;;;;;;-4.47;69.98;101948.86;1612117;88;25786;-77
2022/03/02 03:00:24;;;;;;;35.85;15.58;;;;;;;-4.49;70.09;101948.55;1606534;88;25350;-77
2022/03/02 03:02:52;;;;;;;28.95;13.78;;;;;;;-4.50;70.06;101942.91;1610368;88;26584;-78
2022/03/02 03:05:23;;;;;;;32.65;15.48;;;;;;;-4.52;70.05;101941.66;1587642;88;25989;-78
2022/03/02 03:07:50;;;;;;;;;;;;;;;-4.53;70.25;101941.25;1605552;87;27623;-79
2022/03/02 03:10:18;;;;;;;32.30;16.40;;;;;;;-4.56;70.05;101944.00;1599746;88;25818;-78
2022/03/02 03:12:46;;;;;;;38.60;16.37;;;;;;;-4.58;70.17;101943.66;1610978;88;26434;-77
2022/03/02 03:15:16;;;;;;;30.95;15.28;;;;;;;-4.56;70.25;101932.69;1607612;87;25851;-77
2022/03/02 03:17:43;;;;;;;31.57;14.87;;;;;;;-4.53;70.34;101933.41;1609502;87;25841;-78
2022/03/02 03:20:12;;;;;;;35.25;15.78;;;;;;;-4.55;70.20;101927.39;1609732;88;27454;-77
2022/03/02 03:22:39;;;;;;;35.13;16.82;;;;;;;-4.59;69.96;101926.25;1608109;87;26282;-77
2022/03/02 03:25:07;;;;;;;34.92;16.05;;;;;;;-4.60;69.96;101925.88;1611157;87;25770;-77
2022/03/02 03:27:35;;;;;;;31.50;15.03;;;;;;;-4.59;70.03;101927.11;1610335;88;25981;-77
2022/03/02 03:30:03;;;;;;;37.58;15.40;;;;;;;-4.61;69.80;101918.92;1609230;87;26001;-77
2022/03/02 03:32:30;;;;;;;33.23;15.40;;;;;;;-4.64;69.65;101921.67;1611183;88;28388;-78
2022/03/02 03:34:56;;;;;;;35.17;16.00;;;;;;;-4.65;69.64;101914.73;1605911;88;25343;-78
2022/03/02 03:37:24;;;;;;;33.28;15.70;;;;;;;-4.70;69.67;101920.12;1608673;88;25786;-77
2022/03/02 03:39:51;;;;;;;36.88;17.20;;;;;;;-4.74;69.76;101922.02;1614560;87;26050;-77
2022/03/02 03:42:17;;;;;;;30.20;15.28;;;;;;;-4.75;69.95;101923.39;1610255;88;25861;-78
2022/03/02 03:44:44;;;;;;;34.48;15.38;;;;;;;-4.77;69.97;101921.29;1609363;88;27526;-77
2022/03/02 03:47:10;;;;;;;30.85;15.50;;;;;;;-4.80;69.91;101918.78;1610978;87;25813;-77
2022/03/02 03:49:36;;;;;;;33.70;16.85;;;;;;;-4.81;70.21;101911.83;1613761;87;25788;-77
2022/03/02 03:52:04;;;;;;;42.33;17.42;;;;;;;-4.82;70.11;101914.06;1609963;88;26641;-78
2022/03/02 03:54:30;;;;;;;41.42;19.00;;;;;;;-4.82;70.06;101911.00;1610379;88;25802;-77
2022/03/02 03:56:56;;;;;;;37.48;17.60;;;;;;;-4.77;70.37;101910.36;1604246;88;28243;-78
2022/03/02 03:59:23;;;;;;;44.77;19.77;;;;;;;-4.72;70.65;101901.90;1608736;87;26071;-77
2022/03/02 04:01:49;;;;;;;44.08;19.27;;;;;;;-4.72;70.42;101902.34;1609782;88;25802;-77
2022/03/02 04:04:15;;;;;;;48.65;22.20;;;;;;;-4.75;70.26;101902.00;1607053;88;25844;-77
2022/03/02 04:06:41;;;;;;;55.25;22.52;;;;;;;-4.75;70.26;101902.00;1610270;88;25825;-77
2022/03/02 04:09:07;;;;;;;54.30;23.57;;;;;;;-4.75;70.15;101899.39;1609625;88;27437;-77
2022/03/02 04:11:34;;;;;;;50.33;23.62;;;;;;;-4.74;70.19;101898.94;1607292;88;25822;-76
2022/03/02 04:14:02;;;;;;;53.08;23.70;;;;;;;-4.74;70.25;101894.58;1604731;88;25824;-77
2022/03/02 04:16:29;;;;;;;56.30;23.40;;;;;;;-4.73;70.21;101900.66;1601747;88;25993;-77
2022/03/02 04:18:55;;;;;;;50.35;23.75;;;;;;;-4.76;70.24;101892.47;1614434;88;25990;-79
2022/03/02 04:21:21;;;;;;;52.03;23.40;;;;;;;-4.77;70.24;101893.84;1607471;87;27528;-77
2022/03/02 04:23:48;;;;;;;53.10;24.02;;;;;;;-4.78;70.29;101886.91;1611380;87;26083;-77
2022/03/02 04:26:14;;;;;;;46.13;21.50;;;;;;;-4.78;70.41;101886.91;1607089;88;26535;-77
2022/03/02 04:28:41;;;;;;;53.98;22.60;;;;;;;-4.78;70.39;101882.98;1609395;88;25895;-78
2022/03/02 04:31:07;;;;;;;49.20;20.55;;;;;;;-4.79;70.60;101886.52;1609725;87;25876;-77
2022/03/02 04:33:34;;;;;;;50.95;21.05;;;;;;;-4.79;70.88;101885.22;1607943;87;28300;-77
2022/03/02 04:36:00;;;;;;;45.50;22.77;;;;;;;-4.81;70.88;101882.64;1609419;87;25748;-77
2022/03/02 04:38:26;;;;;;;49.18;21.48;;;;;;;-4.82;70.82;101890.55;1609386;88;25775;-77
2022/03/02 04:40:52;;;;;;;49.48;21.12;;;;;;;-4.83;70.73;101884.46;1610963;87;25863;-77
2022/03/02 04:43:18;;;;;;;53.30;22.98;;;;;;;-4.86;70.52;101889.82;1609963;88;25906;-77
2022/03/02 04:45:44;;;;;;;46.68;20.72;;;;;;;-4.87;70.45;101880.71;1606859;88;27435;-77
2022/03/02 04:48:11;;;;;;;56.05;25.37;;;;;;;-4.85;70.87;101886.73;1610110;87;25774;-77
2022/03/02 04:50:38;;;;;;;56.13;22.45;;;;;;;-4.85;70.93;101880.20;1606750;88;25673;-77
2022/03/02 04:53:04;;;;;;;43.48;19.90;;;;;;;-4.86;70.87;101883.29;1605623;88;26495;-77
2022/03/02 04:55:30;;;;;;;49.05;21.77;;;;;;;-4.87;70.93;101882.88;1607803;87;25965;-77
2022/03/02 04:58:00;;;;;;;46.98;19.12;;;;;;;-4.91;70.83;101881.30;1606846;88;27427;-77
2022/03/02 05:00:31;;;;;;;43.15;19.00;;;;;;;-4.92;70.76;101881.36;1606690;88;25909;-77
2022/03/02 05:03:00;;;;;;;50.73;22.25;;;;;;;-4.96;70.78;101885.00;1602408;88;25930;-77
2022/03/02 05:05:30;;;;;;;40.88;20.20;;;;;;;-4.97;71.11;101881.97;1608642;88;26015;-77
2022/03/02 05:07:57;;;;;;;50.35;21.77;;;;;;;-4.97;71.24;101881.97;1610254;88;25825;-77
2022/03/02 05:10:25;;;;;;;45.38;20.48;;;;;;;-4.96;71.40;101878.47;1608814;88;27471;-77
2022/03/02 05:12:51;;;;;;;51.33;24.05;;;;;;;-4.98;71.03;101875.89;1607904;87;25852;-77
2022/03/02 05:15:19;;;;;;;51.35;22.05;;;;;;;-5.03;70.91;101872.62;1602583;88;25810;-78
2022/03/02 05:17:47;;;;;;;46.68;22.67;;;;;;;-5.07;70.86;101869.70;1608719;88;26111;-77
2022/03/02 05:20:15;;;;;;;50.55;20.45;;;;;;;-5.11;70.85;101867.28;1606899;88;25834;-77
2022/03/02 05:22:41;;;;;;;42.58;19.52;;;;;;;-5.11;70.98;101862.06;1610903;88;28267;-77
2022/03/02 05:25:10;;;;;;;42.33;19.07;;;;;;;-5.13;70.84;101856.04;1610852;88;26459;-77
2022/03/02 05:27:36;;;;;;;44.03;19.90;;;;;;;-5.14;70.84;101864.77;1611470;87;26574;-77
2022/03/02 05:30:04;;;;;;;42.93;20.02;;;;;;;-5.15;70.83;101863.08;1609062;87;26122;-77
2022/03/02 05:32:30;;;;;;;46.60;19.87;;;;;;;-5.17;70.82;101861.81;1610332;88;25939;-77
2022/03/02 05:34:57;;;;;;;49.30;20.12;;;;;;;-5.17;70.87;101861.81;1602720;87;27465;-77
2022/03/02 05:37:23;;;;;;;40.85;18.27;;;;;;;-5.17;71.21;101864.87;1605507;88;26003;-77
2022/03/02 05:39:49;;;;;;;38.33;18.25;;;;;;;-5.17;71.31;101857.03;1612545;88;25940;-76
2022/03/02 05:42:15;;;;;;;37.78;18.50;;;;;;;-5.19;71.08;101858.85;1609967;87;26364;-77
2022/03/02 05:44:42;;;;;;;39.20;18.67;;;;;;;-5.19;71.24;101858.85;1608662;88;26586;-77
2022/03/02 05:47:08;;;;;;;36.63;17.80;;;;;;;-5.20;71.47;101855.86;1611488;87;27452;-77
2022/03/02 05:49:34;;;;;;;39.15;19.42;;;;;;;-5.18;71.58;101857.52;1611013;88;26020;-77
2022/03/02 05:52:01;;;;;;;37.30;16.90;;;;;;;-5.19;71.43;101854.94;1610816;87;26053;-77
2022/03/02 05:54:27;;;;;;;42.78;18.40;;;;;;;-5.22;71.35;101852.01;1604853;87;25867;-81
2022/03/02 05:56:54;;;;;;;38.70;17.87;;;;;;;-5.23;71.41;101853.34;1594050;88;26363;-77
2022/03/02 05:59:20;;;;;;;45.23;21.70;;;;;;;-5.23;71.52;101859.88;1599735;88;28330;-78
2022/03/02 06:01:47;;;;;;;46.37;21.65;;;;;;;-5.22;71.68;101857.67;1593192;88;25855;-78
2022/03/02 06:04:13;;;;;;;53.15;23.35;;;;;;;-5.18;71.82;101858.81;1594363;88;25992;-77
2022/03/02 06:06:40;;;;;;;46.02;22.02;;;;;;;-5.12;72.14;101855.11;1606528;88;25928;-77
2022/03/02 06:09:10;;;;;;;48.60;22.85;;;;;;;-5.07;72.17;101855.80;1608420;87;25861;-77
2022/03/02 06:11:38;;;;;;;48.73;23.40;;;;;;;-5.03;72.38;101855.64;1607313;88;27473;-77
2022/03/02 06:14:06;;;;;;;50.15;24.50;;;;;;;-5.00;72.55;101858.12;1608968;88;25310;-77
2022/03/02 06:16:33;;;;;;;52.78;24.65;;;;;;;-4.96;73.00;101861.48;1606776;88;25847;-77
2022/03/02 06:19:00;;;;;;;45.92;21.35;;;;;;;-4.93;73.25;101852.20;1602776;88;26631;-77
2022/03/02 06:21:29;;;;;;;54.20;23.95;;;;;;;-4.90;73.35;101855.55;1609005;88;25749;-77
2022/03/02 06:23:56;;;;;;;51.92;24.07;;;;;;;-4.88;73.33;101848.97;1609545;88;27601;-77
2022/03/02 06:26:25;;;;;;;60.23;25.95;;;;;;;-4.84;73.77;101855.78;1603779;88;25969;-77
2022/03/02 06:28:53;;;;;;;61.55;27.25;;;;;;;-4.78;74.02;101859.46;1607942;88;25644;-77
2022/03/02 06:31:19;;;;;;;61.30;27.52;;;;;;;-4.72;74.41;101865.30;1601469;88;26561;-77
2022/03/02 06:33:47;;;;;;;58.30;24.87;;;;;;;-4.68;74.65;101861.28;1608885;88;25845;-77
2022/03/02 06:36:14;;;;;;;58.63;28.62;;;;;;;-4.65;74.84;101858.53;1603844;88;27468;-77
2022/03/02 06:38:41;;;;;;;68.37;30.05;;;;;;;-4.60;75.00;101853.53;1609206;87;25801;-77
2022/03/02 06:41:45;;;;;;;71.80;31.20;;;;;;;-4.53;75.14;101850.22;1609317;87;25794;-77
2022/03/02 06:44:27;;;;;;;70.85;33.05;;;;;;;-4.47;75.08;101846.87;1609934;88;25842;-77
2022/03/02 06:47:09;;;;;;;75.32;33.78;;;;;;;-4.35;75.30;101849.47;1589666;88;25305;-77
2022/03/02 06:49:55;;;;;;;70.25;31.85;;;;;;;-4.27;75.65;101844.33;1609827;88;28408;-77
2022/03/02 06:52:27;;;;;;;85.32;36.60;;;;;;;-4.17;75.71;101850.05;1609987;88;26219;-77
2022/03/02 06:54:56;;;;;;;82.88;36.77;;;;;;;-4.07;75.96;101851.36;1610114;88;26087;-77
2022/03/02 06:57:27;;;;;;;75.50;36.60;;;;;;;-3.98;76.53;101848.37;1608682;87;25866;-77
2022/03/02 07:00:02;;;;;;;82.92;35.03;;;;;;;-3.87;76.48;101850.53;1607405;87;25782;-78
2022/03/02 07:02:48;;;;;;;84.62;35.52;;;;;;;-3.78;76.73;101843.13;1610737;86;27472;-77
2022/03/02 07:05:17;;;;;;;83.35;36.30;;;;;;;-3.68;76.81;101839.22;1607170;87;26089;-77
2022/03/02 07:07:45;;;;;;;80.28;35.08;;;;;;;-3.59;76.93;101842.72;1610340;88;25924;-77
2022/03/02 07:10:12;;;;;;;71.62;34.35;;;;;;;-3.50;76.91;101837.08;1609813;88;26624;-77
2022/03/02 07:12:40;;;;;;;71.20;35.65;;;;;;;-3.40;76.97;101836.23;1607829;87;26445;-78
2022/03/02 07:15:08;;;;;;;75.65;32.90;;;;;;;-3.30;77.24;101835.75;1608570;87;27476;-77
2022/03/02 07:17:35;;;;;;;76.82;36.65;;;;;;;-3.17;77.26;101832.98;1610125;88;25857;-78
2022/03/02 07:20:09;;;;;;;71.75;33.60;;;;;;;-3.07;77.18;101828.60;1607880;88;25924;-77
2022/03/02 07:22:49;;;;;;;70.60;32.35;;;;;;;-2.98;77.31;101826.42;1606204;87;26517;-78
2022/03/02 07:25:29;;;;;;;65.07;30.17;;;;;;;-2.92;77.19;101826.13;1607474;87;25789;-77
2022/03/02 07:27:57;;;;;;;74.15;31.73;;;;;;;-2.78;77.38;101826.81;1606850;88;28307;-77
2022/03/02 07:30:26;;;;;;;71.90;32.28;;;;;;;-2.68;77.51;101826.30;1611011;88;25747;-78
2022/03/02 07:33:00;;;;;;;72.55;33.63;;;;;;;-2.60;77.33;101826.77;1607633;88;25806;-77
2022/03/02 07:35:35;;;;;;;70.37;33.42;;;;;;;-2.51;77.68;101824.17;1604896;88;26601;-78
2022/03/02 07:38:05;;;;;;;62.43;30.55;;;;;;;-2.41;77.94;101818.86;1605066;88;26044;-78
2022/03/02 07:40:32;;;;;;;69.70;32.60;;;;;;;-2.31;78.07;101824.52;1607992;88;27457;-78
2022/03/02 07:42:59;;;;;;;63.83;30.95;;;;;;;-2.24;77.66;101825.90;1604217;88;26018;-79
2022/03/02 07:45:26;;;;;;;60.15;27.70;;;;;;;-2.06;77.44;101814.05;1609088;88;26538;-77
2022/03/02 07:47:52;;;;;;;62.48;28.25;;;;;;;-2.06;77.44;101814.05;1610203;88;26676;-78
2022/03/02 07:50:19;;;;;;;63.52;27.17;;;;;;;-1.96;77.46;101817.90;1603242;88;25967;-77
2022/03/02 07:52:51;;;;;;;61.53;29.77;;;;;;;-1.88;77.55;101810.47;1608922;87;28300;-78
2022/03/02 07:55:18;;;;;;;59.23;26.95;;;;;;;-1.66;77.15;101810.22;1613798;88;25849;-79
2022/03/02 07:57:51;;;;;;;57.60;25.97;;;;;;;-1.66;77.15;101810.22;1606810;88;25874;-78
2022/03/02 08:00:18;;;;;;;57.10;25.95;;;;;;;-1.56;76.79;101804.86;1611044;87;26533;-79
2022/03/02 08:02:47;;;;;;;75.85;31.80;;;;;;;-1.45;76.51;101801.21;1607500;87;25857;-79
2022/03/02 08:05:13;;;;;;;89.50;38.83;;;;;;;-1.36;76.58;101799.42;1607451;87;27482;-78
2022/03/02 08:07:40;;;;;;;101.30;43.73;;;;;;;-1.25;76.33;101799.70;1607528;87;25845;-79
2022/03/02 08:10:08;;;;;;;105.10;48.17;;;;;;;-1.14;75.84;101795.17;1608727;87;26396;-78
2022/03/02 08:12:34;;;;;;;80.67;35.63;;;;;;;-1.04;75.74;101797.22;1606853;88;25862;-79
2022/03/02 08:15:03;;;;;;;76.60;34.38;;;;;;;-0.92;75.50;101797.03;1610174;87;25399;-79
2022/03/02 08:17:29;;;;;;;76.42;33.98;;;;;;;-0.82;75.08;101791.17;1606527;88;28808;-79
2022/03/02 08:19:55;;;;;;;64.32;31.00;;;;;;;-0.71;74.66;101795.83;1609908;87;25975;-78
2022/03/02 08:22:24;;;;;;;70.87;32.83;;;;;;;-0.63;74.46;101792.30;1607786;88;25850;-78
2022/03/02 08:25:11;;;;;;;61.60;29.82;;;;;;;-0.53;74.37;101799.19;1608065;87;25856;-78
2022/03/02 08:27:43;;;;;;;60.40;29.27;;;;;;;-0.44;74.32;101794.27;1604842;88;25826;-79
2022/03/02 08:30:12;;;;;;;57.10;27.10;;;;;;;-0.32;73.99;101797.50;1606099;88;27453;-84
2022/03/02 08:32:46;;;;;;;61.25;28.12;;;;;;;-0.22;73.70;101792.56;1581765;88;25834;-80
2022/03/02 08:35:14;;;;;;;61.70;30.08;;;;;;;-0.13;73.64;101795.98;1608648;88;25701;-84
2022/03/02 08:37:41;;;;;;;60.48;28.85;;;;;;;-0.04;73.56;101796.28;1609987;88;26650;-83
2022/03/02 08:40:10;;;;;;;57.70;27.90;;;;;;;0.06;73.55;101793.97;1613970;87;25780;-81
2022/03/02 08:42:39;;;;;;;57.98;27.25;;;;;;;0.15;73.20;101789.94;1607814;88;27482;-82
2022/03/02 08:45:05;;;;;;;62.95;27.85;;;;;;;0.24;73.13;101789.36;1613256;88;25777;-80
2022/03/02 08:47:32;;;;;;;50.98;26.35;;;;;;;0.33;72.94;101784.40;1614478;87;25789;-80
2022/03/02 08:50:00;;;;;;;55.15;26.30;;;;;;;0.43;72.84;101777.62;1606827;87;25793;-80
2022/03/02 08:52:31;;;;;;;55.12;28.15;;;;;;;0.53;72.68;101767.38;1603989;88;25826;-79
2022/03/02 08:55:04;;;;;;;54.10;27.75;;;;;;;0.63;72.90;101765.39;1610533;88;27421;-81
2022/03/02 08:57:33;;;;;;;45.45;24.25;;;;;;;0.73;72.76;101763.88;1609923;88;25796;-79
2022/03/02 09:00:05;;;;;;;50.65;24.15;;;;;;;0.82;72.09;101757.64;1600038;88;25864;-80
2022/03/02 09:02:36;;;;;;;53.17;26.65;;;;;;;0.93;72.13;101759.14;1604851;88;26022;-81
2022/03/02 09:05:05;;;;;;;47.33;25.43;;;;;;;1.00;71.92;101757.34;1605101;88;25860;-80
2022/03/02 09:07:31;;;;;;;49.33;24.92;;;;;;;1.08;71.74;101756.38;1611289;87;27650;-79
2022/03/02 09:10:00;;;;;;;53.15;25.70;;;;;;;1.15;71.31;101756.84;1610518;87;26123;-80
2022/03/02 09:12:26;;;;;;;46.53;23.75;;;;;;;1.21;71.07;101746.73;1605621;88;26453;-80
2022/03/02 09:14:55;;;;;;;55.75;27.82;;;;;;;1.28;70.91;101748.01;1601808;88;25794;-80
2022/03/02 09:17:26;;;;;;;42.48;21.57;;;;;;;1.39;70.89;101748.66;1612034;87;25831;-80
2022/03/02 09:19:56;;;;;;;42.33;21.50;;;;;;;1.48;70.40;101744.92;1610690;86;27566;-80
2022/03/02 09:22:26;;;;;;;47.70;23.05;;;;;;;1.56;69.81;101737.84;1598513;88;25811;-80
2022/03/02 09:24:53;;;;;;;43.20;21.73;;;;;;;1.66;70.31;101738.05;1611124;88;26446;-81
2022/03/02 09:27:21;;;;;;;34.30;18.87;;;;;;;1.76;70.08;101733.38;1611685;88;26115;-80
2022/03/02 09:29:49;;;;;;;45.38;23.90;;;;;;;1.86;69.71;101727.84;1608949;88;25821;-80
2022/03/02 09:32:16;;;;;;;37.93;20.20;;;;;;;1.94;69.69;101724.22;1614454;88;27432;-80
2022/03/02 09:34:49;;;;;;;39.48;19.42;;;;;;;2.03;69.36;101725.39;1613433;87;25381;-80
2022/03/02 09:37:17;;;;;;;31.12;15.98;;;;;;;2.10;68.14;101720.89;1607688;88;25845;-80
2022/03/02 09:39:43;;;;;;;26.85;13.10;;;;;;;2.16;67.90;101713.85;1611346;88;26515;-79
2022/03/02 09:42:19;;;;;;;22.17;11.53;;;;;;;2.25;67.23;101718.98;1605171;87;25799;-81
2022/03/02 09:44:51;;;;;;;19.55;10.25;;;;;;;2.34;65.22;101711.73;1601953;88;27504;-80
2022/03/02 09:47:21;;;;;;;21.82;10.70;;;;;;;2.44;65.53;101707.48;1603920;88;25975;-80
2022/03/02 09:49:55;;;;;;;25.25;13.20;;;;;;;2.59;64.79;101708.23;1604094;88;25861;-80
2022/03/02 09:52:24;;;;;;;32.63;16.70;;;;;;;2.65;63.95;101696.70;1606439;88;26073;-80
2022/03/02 09:54:59;;;;;;;24.87;11.18;;;;;;;2.72;63.94;101697.12;1595003;88;25842;-78
2022/03/02 09:57:26;;;;;;;21.02;11.25;;;;;;;2.82;64.65;101700.31;1593996;88;27444;-79
2022/03/02 09:59:56;;;;;;;28.05;13.55;;;;;;;2.94;63.71;101702.09;1593756;88;25955;-78
2022/03/02 10:02:38;;;;;;;33.45;19.87;;;;;;;3.00;63.55;101692.38;1592525;88;25821;-79
2022/03/02 10:05:12;;;;;;;23.80;12.33;;;;;;;3.10;62.92;101688.09;1590664;88;25961;-79
2022/03/02 10:07:47;;;;;;;24.95;12.90;;;;;;;3.19;62.73;101691.88;1591846;88;25898;-78
2022/03/02 10:10:23;;;;;;;25.30;12.80;;;;;;;3.26;62.36;101690.47;1589861;88;27794;-78
2022/03/02 10:12:44;;;;;;;37.23;19.60;;;;;;;3.32;61.58;101682.06;1591368;88;25970;-79
2022/03/02 10:15:13;;;;;;;25.65;13.70;;;;;;;3.36;61.46;101680.87;1592542;88;26056;-79
2022/03/02 10:17:43;;;;;;;23.65;12.80;;;;;;;3.41;61.40;101677.89;1587419;88;26005;-78
2022/03/02 10:20:14;;;;;;;23.85;13.45;;;;;;;3.46;60.80;101681.05;1606959;88;25724;-78
2022/03/02 10:22:49;;;;;;;28.57;15.32;;;;;;;3.48;59.86;101676.00;1602494;88;28343;-78
2022/03/02 10:25:17;;;;;;;22.67;12.28;;;;;;;3.51;60.76;101674.44;1608978;87;25830;-78
2022/03/02 10:28:04;;;;;;;20.75;11.33;;;;;;;3.56;60.60;101667.47;1608398;87;25794;-78
2022/03/02 10:30:40;;;;;;;23.05;9.80;;;;;;;3.72;60.63;101673.31;1609371;88;25859;-78
2022/03/02 10:33:22;;;;;;;19.87;11.53;;;;;;;3.81;58.58;101668.61;1581921;89;25816;-78
2022/03/02 10:35:56;;;;;;;19.25;9.95;;;;;;;3.84;56.87;101663.94;1604790;88;27560;-78
2022/03/02 10:38:57;;;;;;;18.35;10.18;;;;;;;3.88;57.20;101657.44;1598183;88;26109;-79
2022/03/02 10:41:28;;;;;;;;;;;;;;;3.89;57.89;101649.83;1611545;87;25910;-78
2022/03/02 10:44:05;;;;;;;19.52;9.90;;;;;;;3.97;56.88;101645.28;1605064;88;26558;-78
2022/03/02 10:46:33;;;;;;;20.88;10.85;;;;;;;4.02;56.35;101639.12;1587936;88;26031;-79
2022/03/02 10:49:08;;;;;;;20.05;11.03;;;;;;;4.08;56.97;101632.52;1607569;88;27233;-78
2022/03/02 10:51:35;;;;;;;18.07;9.38;;;;;;;4.09;56.10;101627.55;1610052;88;25799;-78
2022/03/02 10:54:05;;;;;;;18.12;9.93;;;;;;;4.12;56.34;101632.16;1608544;88;25763;-78
2022/03/02 10:56:40;;;;;;;23.02;10.95;;;;;;;4.13;56.11;101623.73;1605162;88;27159;-79
2022/03/02 10:59:10;;;;;;;18.50;9.88;;;;;;;4.15;56.01;101615.98;1606214;88;25759;-81
2022/03/02 11:01:38;;;;;;;18.62;10.30;;;;;;;4.16;55.95;101617.69;1604958;88;27494;-81
2022/03/02 11:04:06;;;;;;;23.30;15.05;;;;;;;4.17;55.49;101609.27;1611221;88;25987;-80
2022/03/02 11:06:35;;;;;;;16.85;9.43;;;;;;;4.18;55.51;101608.28;1607018;88;25830;-81
2022/03/02 11:09:02;;;;;;;19.90;10.28;;;;;;;4.28;56.35;101609.23;1609156;88;25853;-81
2022/03/02 11:11:32;;;;;;;18.57;10.90;;;;;;;4.37;55.66;101601.39;1611523;88;26061;-81
2022/03/02 11:13:59;;;;;;;19.98;11.65;;;;;;;4.41;55.47;101594.02;1601787;88;27554;-81
2022/03/02 11:16:25;;;;;;;20.00;10.80;;;;;;;4.43;55.10;101598.25;1609432;88;25933;-81
2022/03/02 11:18:52;;;;;;;21.23;9.83;;;;;;;4.44;54.63;101600.42;1607591;87;26696;-81